Time;durP1;ratioP1;P1;durP2;ratioP2;P2;SDS_P1;SDS_P2;PMS_P1;PMS_P2;Temp;Humidity;BMP_temperature;BMP_pressure;BME280_temperature;BME280_humidity;BME280_pressure;Samples;Min_cycle;Max_cycle;Signal;HPM_P1;HPM_P2
2022/09/26 15:05:00;;;;;;;16.23;8.75;;;;;;;11.67;100.00;99381.47;5085837;27;20403;-82
2022/09/26 15:07:32;;;;;;;26.20;9.60;;;;;;;11.83;100.00;99377.94;5060507;28;20029;-83
2022/09/26 15:10:37;;;;;;;23.58;9.77;;;;;;;11.81;100.00;99366.28;5064305;28;20032;-83
2022/09/26 15:13:18;;;;;;;33.42;11.52;;;;;;;11.90;100.00;99376.25;5081595;28;20021;-83
2022/09/26 15:15:49;;;;;;;16.55;9.23;;;;;;;11.84;100.00;99376.91;5079207;28;20102;-83
2022/09/26 15:18:36;;;;;;;23.38;10.57;;;;;;;11.83;100.00;99366.13;5046798;28;20033;-83
2022/09/26 15:21:10;;;;;;;19.52;8.45;;;;;;;11.83;100.00;99366.13;5051657;28;20032;-82
2022/09/26 15:23:48;;;;;;;26.52;8.43;;;;;;;11.82;100.00;99369.88;5059214;28;20028;-82
2022/09/26 15:26:19;;;;;;;16.30;7.57;;;;;;;11.78;100.00;99363.88;5057473;28;20035;-82
2022/09/26 15:28:48;;;;;;;24.15;7.72;;;;;;;11.82;100.00;99364.38;5047657;28;20028;-82
2022/09/26 15:31:22;;;;;;;11.13;6.40;;;;;;;11.78;100.00;99358.38;5071817;28;20741;-82
2022/09/26 15:33:53;;;;;;;14.48;5.57;;;;;;;11.76;100.00;99357.69;5073685;28;20515;-82
2022/09/26 15:36:19;;;;;;;7.53;4.78;;;;;;;11.69;100.00;99354.75;5077828;28;20029;-83
2022/09/26 15:38:45;;;;;;;18.15;6.82;;;;;;;11.71;100.00;99357.34;5061214;28;20028;-83
2022/09/26 15:42:56;;;;;;;10.10;5.80;;;;;;;11.75;100.00;99355.97;5061036;28;20029;-82
2022/09/26 15:44:04;;;;;;;23.10;6.10;;;;;;;11.62;100.00;99344.63;5077852;28;20045;-82
2022/09/26 15:46:31;;;;;;;18.23;5.38;;;;;;;11.50;100.00;99344.06;5074084;28;20037;-84
2022/09/26 15:48:57;;;;;;;7.15;3.88;;;;;;;11.33;100.00;99318.44;5056372;28;20559;-82
2022/09/26 15:51:28;;;;;;;24.55;5.47;;;;;;;11.47;100.00;99338.91;5037613;28;20033;-82
2022/09/26 15:54:00;;;;;;;10.15;3.97;;;;;;;11.49;100.00;99331.38;5075729;28;20444;-82
2022/09/26 15:56:32;;;;;;;8.45;4.07;;;;;;;11.47;100.00;99337.00;5090100;28;20072;-82
2022/09/26 15:59:01;;;;;;;8.10;3.38;;;;;;;11.35;100.00;99330.13;5075220;28;20144;-79
2022/09/26 16:01:29;;;;;;;13.60;4.07;;;;;;;11.34;100.00;99328.41;5068575;28;20079;-80
2022/09/26 16:03:59;;;;;;;5.97;3.33;;;;;;;11.32;100.00;99334.03;5070941;28;20037;-81
2022/09/26 16:06:35;;;;;;;6.25;4.13;;;;;;;11.29;100.00;99320.66;5070278;28;20041;-80
2022/09/26 16:09:05;;;;;;;6.47;3.65;;;;;;;11.25;100.00;99326.63;5055194;28;20040;-81
2022/09/26 16:11:32;;;;;;;7.47;3.22;;;;;;;11.12;100.00;99322.47;5070551;28;20495;-80
2022/09/26 16:13:59;;;;;;;7.43;3.50;;;;;;;11.14;100.00;99323.16;5070477;28;20033;-80
2022/09/26 16:16:31;;;;;;;6.53;3.63;;;;;;;11.10;100.00;99312.69;5054728;28;20114;-79
2022/09/26 16:19:00;;;;;;;9.70;2.70;;;;;;;11.10;100.00;99312.69;5057259;28;20546;-81
2022/09/26 16:21:30;;;;;;;7.05;3.65;;;;;;;11.13;100.00;99313.22;5039789;28;20033;-80
2022/09/26 16:24:21;;;;;;;6.78;3.55;;;;;;;11.14;100.00;99311.38;5055087;28;20036;-79
2022/09/26 16:26:48;;;;;;;7.75;3.97;;;;;;;11.11;100.00;99309.78;5038481;28;20025;-80
2022/09/26 16:29:28;;;;;;;6.88;4.18;;;;;;;11.10;100.00;99307.22;5039580;28;20422;-80
2022/09/26 16:31:53;;;;;;;4.57;3.75;;;;;;;11.13;100.00;99307.75;5051002;28;20035;-79
2022/09/26 16:34:24;;;;;;;9.80;4.63;;;;;;;11.19;100.00;99307.09;5039816;28;20037;-79
2022/09/26 16:36:51;;;;;;;8.02;4.13;;;;;;;11.13;100.00;99307.75;5054899;28;20077;-77
2022/09/26 16:39:23;;;;;;;5.03;3.83;;;;;;;11.14;100.00;99303.16;5037740;28;20045;-78
2022/09/26 16:42:00;;;;;;;11.38;3.97;;;;;;;11.04;100.00;99290.41;5055694;28;20047;-80
2022/09/26 16:44:45;;;;;;;7.93;4.45;;;;;;;11.27;100.00;99303.53;5039140;28;20029;-79
2022/09/26 16:47:30;;;;;;;5.88;4.57;;;;;;;11.15;100.00;99302.97;5052116;28;20040;-78
2022/09/26 16:49:55;;;;;;;6.72;5.53;;;;;;;11.11;100.00;99301.56;5039038;28;20024;-79
2022/09/26 16:52:35;;;;;;;9.57;5.75;;;;;;;11.09;100.00;99295.41;5037065;28;20041;-78
2022/09/26 16:55:04;;;;;;;8.30;5.25;;;;;;;11.14;100.00;99305.88;5045812;28;20131;-78
2022/09/26 16:57:37;;;;;;;11.07;5.90;;;;;;;11.14;100.00;99297.66;5053755;28;20032;-79
2022/09/26 17:02:59;;;;;;;7.63;5.45;;;;;;;11.14;100.00;99282.06;5057031;28;20077;-80
2022/09/26 17:05:24;;;;;;;10.40;5.65;;;;;;;11.16;100.00;99284.66;5053311;28;20069;-80
2022/09/26 17:07:50;;;;;;;8.05;5.38;;;;;;;11.11;100.00;99287.88;5039085;28;20439;-79
2022/09/26 17:10:18;;;;;;;11.32;5.40;;;;;;;11.16;100.00;99296.47;5054502;28;20524;-79
2022/09/26 17:12:49;;;;;;;14.90;6.10;;;;;;;11.26;100.00;99290.00;5038469;28;20044;-80
2022/09/26 17:15:34;;;;;;;14.10;6.53;;;;;;;11.18;100.00;99288.09;5039379;28;20429;-79
2022/09/26 17:18:04;;;;;;;11.90;5.85;;;;;;;11.16;100.00;99293.72;5052501;28;20492;-79
2022/09/26 17:20:30;;;;;;;12.07;6.80;;;;;;;11.26;100.00;99290.84;5054004;28;20037;-79
2022/09/26 17:22:55;;;;;;;14.35;7.00;;;;;;;11.38;100.00;99297.78;5036947;28;20401;-80
2022/09/26 17:25:24;;;;;;;12.10;6.60;;;;;;;11.30;100.00;99302.38;5020806;28;20079;-80
2022/09/26 17:27:53;;;;;;;10.23;6.88;;;;;;;11.24;100.00;99298.38;5053254;28;20646;-80
2022/09/26 17:30:19;;;;;;;10.35;7.57;;;;;;;11.27;100.00;99294.47;5055199;28;20370;-80
2022/09/26 17:32:49;;;;;;;16.77;8.02;;;;;;;11.30;100.00;99289.50;5054859;28;20043;-80
2022/09/26 17:35:28;;;;;;;13.55;8.52;;;;;;;11.33;100.00;99285.56;5056046;28;20037;-81
2022/09/26 17:37:54;;;;;;;14.18;8.45;;;;;;;11.31;100.00;99276.66;5050136;28;20033;-79
2022/09/26 17:40:26;;;;;;;13.63;7.97;;;;;;;11.25;100.00;99286.41;5022400;28;20044;-78
2022/09/26 17:42:58;;;;;;;17.55;8.60;;;;;;;11.25;100.00;99289.16;5057497;28;20108;-80
2022/09/26 17:45:30;;;;;;;20.05;9.00;;;;;;;11.33;100.00;99280.97;5039374;28;20033;-79
2022/09/26 17:47:59;;;;;;;25.40;9.40;;;;;;;11.39;100.00;99284.91;5054898;28;20043;-78
2022/09/26 17:50:28;;;;;;;24.50;9.55;;;;;;;11.34;100.00;99298.25;5068957;28;20033;-79
2022/09/26 17:52:57;;;;;;;22.15;10.73;;;;;;;11.41;100.00;99282.84;5054509;28;20040;-79
2022/09/26 17:55:23;;;;;;;20.80;10.43;;;;;;;11.45;100.00;99291.63;5055471;28;20100;-79
2022/09/26 17:57:50;;;;;;;20.58;9.90;;;;;;;11.36;100.00;99287.97;5018550;28;20037;-79
2022/09/26 18:00:18;;;;;;;27.23;10.25;;;;;;;11.33;100.00;99285.56;5039321;28;20049;-80
2022/09/26 18:02:47;;;;;;;16.80;9.88;;;;;;;11.33;100.00;99291.94;5055007;28;20107;-80
2022/09/26 18:05:21;;;;;;;18.60;9.05;;;;;;;11.28;100.00;99291.56;5054813;28;20072;-80
2022/09/26 18:07:50;;;;;;;18.10;10.18;;;;;;;11.26;100.00;99288.13;5066841;28;20048;-79
2022/09/26 18:10:19;;;;;;;32.60;12.10;;;;;;;11.17;100.00;99280.91;5036779;28;20025;-80
2022/09/26 18:12:56;;;;;;;29.35;11.05;;;;;;;11.21;100.00;99279.53;5046555;28;20025;-80
2022/09/26 18:15:23;;;;;;;31.77;11.98;;;;;;;11.19;100.00;99282.44;5049184;28;20037;-80
2022/09/26 18:17:49;;;;;;;25.15;11.00;;;;;;;11.18;100.00;99285.34;5071879;28;20123;-79
2022/09/26 18:20:19;;;;;;;33.88;11.52;;;;;;;11.12;100.00;99270.44;5052788;28;20465;-79
2022/09/26 18:22:50;;;;;;;35.42;11.38;;;;;;;11.08;100.00;99277.25;5048627;28;20064;-79
2022/09/26 18:25:22;;;;;;;22.88;11.25;;;;;;;11.07;100.00;99270.06;5052507;28;20676;-79
2022/09/26 18:27:51;;;;;;;28.63;11.38;;;;;;;11.08;100.00;99266.28;5056196;28;20031;-79
2022/09/26 18:30:19;;;;;;;31.73;11.38;;;;;;;11.06;100.00;99272.97;5055160;28;20523;-79
2022/09/26 18:32:50;;;;;;;26.13;10.57;;;;;;;11.07;100.00;99275.56;5043797;28;20492;-79
2022/09/26 18:35:26;;;;;;;44.70;12.90;;;;;;;11.06;100.00;99276.56;5044271;28;20025;-79
2022/09/26 18:37:56;;;;;;;44.90;10.93;;;;;;;11.02;100.00;99272.44;5050371;28;20121;-78
2022/09/26 18:40:24;;;;;;;47.95;11.50;;;;;;;11.05;100.00;99280.31;5026539;28;20029;-79
2022/09/26 18:42:53;;;;;;;52.22;12.07;;;;;;;10.94;100.00;99267.78;5043619;28;20366;-80
2022/09/26 18:45:25;;;;;;;32.30;10.70;;;;;;;10.97;100.00;99272.06;5036905;28;20032;-79
2022/09/26 18:47:50;;;;;;;37.10;10.30;;;;;;;10.90;100.00;99265.53;5053470;28;20114;-79
2022/09/26 18:50:35;;;;;;;39.05;10.90;;;;;;;10.91;100.00;99264.50;5049269;28;20065;-79
2022/09/26 18:53:13;;;;;;;32.75;9.60;;;;;;;10.92;100.00;99274.44;5052032;28;20079;-79
2022/09/26 18:58:23;;;;;;;41.55;11.25;;;;;;;10.84;100.00;99267.91;5050986;28;20435;-80
2022/09/26 19:01:11;;;;;;;37.58;9.57;;;;;;;10.96;100.00;99276.69;5034389;28;20037;-79
2022/09/26 19:03:39;;;;;;;41.95;11.15;;;;;;;10.88;100.00;99273.91;5032732;28;20114;-79
2022/09/26 19:06:12;;;;;;;42.67;10.77;;;;;;;10.84;100.00;99276.13;5050819;28;20381;-79
2022/09/26 19:08:41;;;;;;;41.75;11.50;;;;;;;10.83;100.00;99273.53;5049747;28;20032;-79
2022/09/26 19:11:17;;;;;;;30.90;9.20;;;;;;;10.81;100.00;99275.59;5048234;28;20048;-80
2022/09/26 19:13:54;;;;;;;38.55;10.05;;;;;;;10.77;100.00;99275.06;5049940;28;20037;-80
2022/09/26 19:16:21;;;;;;;28.50;11.27;;;;;;;10.91;100.00;99276.31;5029453;28;20032;-79
2022/09/26 19:18:46;;;;;;;42.72;11.57;;;;;;;10.89;100.00;99277.50;5036783;28;20037;-80
2022/09/26 19:21:33;;;;;;;46.10;12.43;;;;;;;10.89;100.00;99277.50;5035407;28;20374;-77
2022/09/26 19:24:11;;;;;;;34.65;9.93;;;;;;;10.84;100.00;99281.59;5062654;28;20039;-79
2022/09/26 19:26:42;;;;;;;49.45;11.55;;;;;;;10.85;100.00;99279.69;5054849;28;20026;-79
2022/09/26 19:29:14;;;;;;;43.42;12.30;;;;;;;10.73;100.00;99262.69;5067157;28;20504;-78
2022/09/26 19:31:41;;;;;;;48.70;12.70;;;;;;;10.81;100.00;99276.44;5052611;28;20033;-77
2022/09/26 19:34:12;;;;;;;46.97;12.43;;;;;;;10.83;100.00;99274.38;5052430;28;20104;-77
2022/09/26 19:36:38;;;;;;;44.30;12.52;;;;;;;10.87;100.00;99279.53;5053836;28;20045;-78
2022/09/26 19:39:12;;;;;;;48.60;12.73;;;;;;;10.92;100.00;99271.69;5036172;28;20030;-78
2022/09/26 19:41:37;;;;;;;39.60;13.15;;;;;;;10.93;100.00;99276.16;5041982;28;20045;-78
2022/09/26 19:44:04;;;;;;;45.05;13.60;;;;;;;10.98;100.00;99284.75;5051893;28;20078;-78
2022/09/26 19:46:30;;;;;;;41.63;13.93;;;;;;;10.95;100.00;99285.94;5047408;28;20414;-78
2022/09/26 19:48:56;;;;;;;60.15;14.63;;;;;;;10.96;100.00;99281.31;5044187;28;20033;-78
2022/09/26 19:51:21;;;;;;;58.45;16.42;;;;;;;11.01;100.00;99290.75;5048177;28;20404;-78
2022/09/26 19:53:47;;;;;;;41.63;13.88;;;;;;;11.09;100.00;99281.72;5044493;28;20033;-79
2022/09/26 19:56:12;;;;;;;51.47;13.80;;;;;;;11.09;100.00;99294.56;5052076;28;20049;-78
2022/09/26 19:58:38;;;;;;;38.17;13.95;;;;;;;11.08;100.00;99287.34;5057130;28;20143;-78
2022/09/26 20:01:14;;;;;;;53.15;14.18;;;;;;;11.01;100.00;99278.94;5070127;28;20033;-78
2022/09/26 20:03:40;;;;;;;41.63;13.32;;;;;;;11.03;100.00;99285.97;5051155;28;20083;-79
2022/09/26 20:06:18;;;;;;;48.03;13.52;;;;;;;10.98;100.00;99292.94;5069500;28;20144;-78
2022/09/26 20:08:43;;;;;;;43.08;12.75;;;;;;;10.95;100.00;99287.81;5070477;28;20035;-78
2022/09/26 20:11:09;;;;;;;45.40;12.98;;;;;;;10.94;100.00;99292.44;5049558;28;20147;-78
2022/09/26 20:16:19;;;;;;;31.25;10.02;;;;;;;10.97;100.00;99294.84;5053184;28;20120;-79
2022/09/26 20:18:47;;;;;;;31.58;11.07;;;;;;;10.88;100.00;99294.97;5068087;28;20068;-80
2022/09/26 20:21:15;;;;;;;32.92;10.48;;;;;;;10.90;100.00;99284.69;5037622;28;20028;-80
2022/09/26 20:23:42;;;;;;;37.97;11.50;;;;;;;10.93;100.00;99279.75;5054155;28;20120;-80
2022/09/26 20:26:08;;;;;;;43.60;10.88;;;;;;;10.94;100.00;99286.09;5055396;28;20043;-79
2022/09/26 20:28:35;;;;;;;46.28;11.82;;;;;;;10.96;100.00;99284.06;5051940;28;20469;-79
2022/09/26 20:31:01;;;;;;;29.30;10.07;;;;;;;10.98;100.00;99285.59;5037250;28;20037;-79
2022/09/26 20:33:27;;;;;;;33.38;9.45;;;;;;;10.99;100.00;99289.22;5046148;28;20055;-79
2022/09/26 20:35:58;;;;;;;35.90;8.70;;;;;;;10.91;100.00;99291.91;5052402;28;20045;-78
2022/09/26 20:38:35;;;;;;;30.85;8.05;;;;;;;10.98;100.00;99284.75;5051312;28;20104;-78
2022/09/26 20:41:01;;;;;;;45.67;8.75;;;;;;;11.00;100.00;99299.13;5052127;28;20032;-79
2022/09/26 20:43:32;;;;;;;29.92;7.28;;;;;;;10.90;100.00;99296.50;5050205;28;20107;-78
2022/09/26 20:45:57;;;;;;;32.83;8.23;;;;;;;10.90;100.00;99291.03;5050219;28;20107;-79
2022/09/26 20:48:26;;;;;;;41.28;7.63;;;;;;;10.86;100.00;99289.66;5053527;28;20040;-79
2022/09/26 20:50:52;;;;;;;39.53;7.82;;;;;;;10.89;100.00;99300.28;5031063;28;20025;-79
2022/09/26 20:53:19;;;;;;;33.38;6.78;;;;;;;10.87;100.00;99302.31;5031428;28;20075;-79
2022/09/26 20:55:46;;;;;;;33.20;7.45;;;;;;;10.94;100.00;99308.00;5052565;28;20045;-79
2022/09/26 20:58:12;;;;;;;34.97;7.63;;;;;;;10.90;100.00;99304.72;5038055;28;20041;-79
2022/09/26 21:00:39;;;;;;;46.17;9.07;;;;;;;10.83;100.00;99301.75;5017171;28;20099;-79
2022/09/26 21:03:05;;;;;;;28.08;7.22;;;;;;;10.83;100.00;99300.91;5029002;28;20032;-79
2022/09/26 21:05:31;;;;;;;35.25;8.02;;;;;;;10.88;100.00;99306.75;5034147;28;20057;-78
2022/09/26 21:07:59;;;;;;;38.15;7.93;;;;;;;10.78;100.00;99295.91;5053680;28;20121;-78
2022/09/26 21:10:30;;;;;;;34.80;6.85;;;;;;;10.83;100.00;99307.25;5035097;28;20044;-79
2022/09/26 21:12:56;;;;;;;26.77;6.85;;;;;;;10.71;100.00;99305.81;5045884;28;20022;-79
2022/09/26 21:15:23;;;;;;;24.33;6.60;;;;;;;10.74;100.00;99310.09;5050782;28;20043;-78
2022/09/26 21:17:51;;;;;;;25.58;6.20;;;;;;;10.73;100.00;99301.03;5055192;28;20128;-78
2022/09/26 21:20:22;;;;;;;21.58;5.93;;;;;;;10.66;100.00;99299.97;5055202;28;20379;-78
2022/09/26 21:22:48;;;;;;;31.63;5.75;;;;;;;10.69;100.00;99306.97;5054068;28;20393;-78
2022/09/26 21:25:25;;;;;;;24.20;5.95;;;;;;;10.72;100.00;99307.50;5035817;28;20033;-78
2022/09/26 21:28:15;;;;;;;17.90;5.05;;;;;;;10.65;100.00;99312.75;5058644;28;20107;-78
2022/09/26 21:30:42;;;;;;;30.60;5.63;;;;;;;10.63;100.00;99313.97;5043579;28;20041;-79
2022/09/26 21:33:11;;;;;;;28.70;6.43;;;;;;;10.57;100.00;99307.22;5046586;28;20044;-78
2022/09/26 21:35:37;;;;;;;17.20;5.68;;;;;;;10.59;100.00;99315.28;5056106;28;20044;-79
2022/09/26 21:38:03;;;;;;;31.88;5.35;;;;;;;10.59;100.00;99318.03;5062079;28;20029;-79
2022/09/26 21:40:31;;;;;;;21.55;5.35;;;;;;;10.60;100.00;99308.81;5057176;28;20041;-79
2022/09/26 21:43:08;;;;;;;19.63;5.80;;;;;;;10.58;100.00;99305.38;5055154;28;20037;-78
2022/09/26 21:45:33;;;;;;;24.95;5.47;;;;;;;10.50;100.00;99308.91;5056569;28;20384;-78
2022/09/26 21:47:59;;;;;;;23.80;5.88;;;;;;;10.49;100.00;99309.91;5068790;28;20104;-78
2022/09/26 21:50:27;;;;;;;34.05;5.93;;;;;;;10.47;100.00;99315.53;5075908;28;20032;-79
2022/09/26 21:52:58;;;;;;;18.77;5.72;;;;;;;10.52;100.00;99316.97;5054219;28;20036;-78
2022/09/26 21:55:32;;;;;;;34.28;6.85;;;;;;;10.48;100.00;99327.38;5038887;28;20067;-78
2022/09/26 21:58:02;;;;;;;35.20;6.60;;;;;;;10.47;100.00;99312.81;5068826;28;20036;-79
2022/09/26 22:00:28;;;;;;;22.33;4.72;;;;;;;10.43;100.00;99327.84;5064673;28;20139;-78
2022/09/26 22:02:57;;;;;;;25.48;6.03;;;;;;;10.54;100.00;99323.13;5055840;28;20072;-79
2022/09/26 22:05:22;;;;;;;31.02;6.55;;;;;;;10.44;100.00;99320.47;5056035;28;20037;-78
2022/09/26 22:07:48;;;;;;;19.63;4.72;;;;;;;10.47;100.00;99329.22;5037585;28;20438;-78
2022/09/26 22:10:14;;;;;;;23.65;4.85;;;;;;;10.46;100.00;99327.53;5037628;28;20055;-78
2022/09/26 22:12:40;;;;;;;22.55;5.25;;;;;;;10.42;100.00;99323.38;5055052;28;20066;-79
2022/09/26 22:15:06;;;;;;;21.05;4.68;;;;;;;10.38;100.00;99321.09;5059408;28;20124;-78
2022/09/26 22:17:32;;;;;;;27.63;4.75;;;;;;;10.40;100.00;99322.69;5036799;28;20039;-78
2022/09/26 22:19:57;;;;;;;21.00;4.13;;;;;;;10.41;100.00;99324.41;5021294;28;20045;-79
2022/09/26 22:22:23;;;;;;;25.13;5.30;;;;;;;10.44;100.00;99329.53;5054218;28;20025;-79
2022/09/26 22:24:48;;;;;;;28.52;3.83;;;;;;;10.42;100.00;99326.09;5038440;28;20455;-79
2022/09/26 22:27:14;;;;;;;31.45;4.90;;;;;;;10.39;100.00;99322.84;5053304;28;20072;-79
2022/09/26 22:29:39;;;;;;;22.90;4.22;;;;;;;10.34;100.00;99327.94;5019611;28;20037;-78
2022/09/26 22:32:05;;;;;;;33.38;4.50;;;;;;;10.35;100.00;99318.72;5046708;28;20037;-79
2022/09/26 22:34:31;;;;;;;27.88;6.20;;;;;;;10.41;100.00;99324.41;5048704;28;20097;-79
2022/09/26 22:36:57;;;;;;;18.48;4.93;;;;;;;10.39;100.00;99331.03;5021303;28;20044;-78
2022/09/26 22:39:22;;;;;;;15.40;5.13;;;;;;;10.27;100.00;99314.00;5055910;28;20028;-78
2022/09/26 22:41:48;;;;;;;22.10;5.35;;;;;;;10.34;100.00;99317.84;5052354;28;20110;-78
2022/09/26 22:44:13;;;;;;;21.63;4.57;;;;;;;10.32;100.00;99313.53;5068633;28;20064;-78
2022/09/26 22:46:39;;;;;;;14.98;3.75;;;;;;;10.29;100.00;99320.16;5054036;28;20033;-78
2022/09/26 22:49:04;;;;;;;17.00;3.42;;;;;;;10.27;100.00;99325.78;5054901;28;20556;-78
2022/09/26 22:51:30;;;;;;;14.35;2.80;;;;;;;10.23;100.00;99326.25;5026491;28;20037;-78
2022/09/26 22:53:55;;;;;;;25.30;4.28;;;;;;;10.26;100.00;99313.13;5072246;28;20048;-78
2022/09/26 22:56:21;;;;;;;18.55;2.97;;;;;;;10.24;100.00;99317.03;5053749;28;20501;-79
2022/09/26 22:58:49;;;;;;;17.63;2.63;;;;;;;10.18;100.00;99321.25;5072158;28;20483;-79
2022/09/26 23:01:23;;;;;;;16.02;2.42;;;;;;;10.23;100.00;99323.50;5056084;28;20389;-79
2022/09/26 23:03:51;;;;;;;21.05;3.60;;;;;;;10.18;100.00;99325.88;5056556;28;20067;-78
2022/09/26 23:06:17;;;;;;;21.15;2.67;;;;;;;10.25;100.00;99324.25;5056414;28;20065;-79
2022/09/26 23:08:43;;;;;;;15.38;2.42;;;;;;;10.22;100.00;99319.94;5038352;28;20037;-79
2022/09/26 23:11:10;;;;;;;11.32;1.90;;;;;;;10.13;100.00;99329.06;5057688;28;20032;-79
2022/09/26 23:13:38;;;;;;;12.70;1.92;;;;;;;10.18;100.00;99323.13;5074574;28;20024;-79
2022/09/26 23:16:05;;;;;;;11.38;2.28;;;;;;;10.11;100.00;99323.75;5045534;28;20049;-78
2022/09/26 23:18:33;;;;;;;11.93;1.77;;;;;;;10.10;100.00;99327.53;5068207;28;20039;-78
2022/09/26 23:21:04;;;;;;;14.30;2.97;;;;;;;10.06;100.00;99323.38;5053736;28;20087;-77
2022/09/26 23:23:29;;;;;;;17.08;1.92;;;;;;;10.04;100.00;99327.28;5044674;28;20029;-78
2022/09/26 23:25:54;;;;;;;6.32;1.60;;;;;;;10.00;100.00;99329.47;5066312;28;20403;-79
2022/09/26 23:28:20;;;;;;;22.77;3.90;;;;;;;9.93;100.00;99322.91;5040671;28;20033;-80
2022/09/26 23:30:45;;;;;;;6.75;1.30;;;;;;;9.98;100.00;99331.50;5052257;28;20463;-79
2022/09/26 23:33:11;;;;;;;5.30;1.05;;;;;;;9.95;100.00;99331.78;5079795;28;20065;-79
2022/09/26 23:35:37;;;;;;;9.07;1.55;;;;;;;9.89;100.00;99324.25;5065837;28;20080;-79
2022/09/26 23:38:03;;;;;;;11.82;1.80;;;;;;;9.97;100.00;99337.09;5039659;28;20032;-80
2022/09/26 23:40:29;;;;;;;21.50;4.03;;;;;;;9.96;100.00;99329.94;5041750;28;20033;-80
2022/09/26 23:42:55;;;;;;;16.60;3.65;;;;;;;9.89;100.00;99333.28;5058463;28;20021;-79
2022/09/26 23:45:20;;;;;;;20.38;3.80;;;;;;;9.92;100.00;99321.19;5057230;28;20037;-78
2022/09/26 23:47:46;;;;;;;25.73;3.63;;;;;;;9.96;100.00;99325.31;5052159;28;20029;-79
2022/09/26 23:50:11;;;;;;;13.10;3.60;;;;;;;9.90;100.00;99321.34;5050009;28;20123;-80
2022/09/26 23:52:37;;;;;;;16.35;4.22;;;;;;;9.95;100.00;99326.31;5024136;28;20060;-79
2022/09/26 23:55:03;;;;;;;22.80;4.55;;;;;;;9.87;100.00;99335.31;5057981;28;20084;-79
2022/09/26 23:57:28;;;;;;;22.52;4.22;;;;;;;9.82;100.00;99328.59;5068328;28;20964;-79
2022/09/26 23:59:54;;;;;;;19.85;4.68;;;;;;;9.74;100.00;99326.66;5025536;28;20086;-79
